ADDS METAR Data INFO
IDs: Format: Raw Decoded Include TAF

Data at: 0028 UTC 11 Dec 2017

KRGK 110015Z AUTO 00000KT 10SM SCT022 M03/M08 A3005 RMK AO2
KRGK 102355Z AUTO 00000KT 10SM OVC022 M03/M08 A3006 RMK AO2
KRGK 102335Z AUTO 30003KT 10SM OVC022 M02/M08 A3006 RMK AO2
KRGK 102315Z AUTO 32003KT 10SM OVC022 M02/M08 A3005 RMK AO2
KRGK 102255Z AUTO 00000KT 10SM OVC022 M02/M08 A3005 RMK AO2
KRGK 102235Z AUTO 32003KT 10SM OVC022 M02/M08 A3005 RMK AO2
KRGK 102215Z AUTO 00000KT 10SM BKN022 M02/M08 A3004 RMK AO2
KRGK 102155Z AUTO 31003KT 10SM SCT022 M02/M08 A3002 RMK AO2
KRGK 102135Z AUTO 30005KT 10SM BKN022 M02/M08 A3002 RMK AO2
KRGK 102115Z AUTO 30004KT 10SM OVC022 M01/M08 A3001 RMK AO2
KRGK 102055Z AUTO 33006KT 10SM OVC024 M01/M08 A3002 RMK AO2
KRGK 102035Z AUTO 30006KT 10SM BKN024 OVC100 M01/M08 A3001 RMK AO2
KRGK 102015Z AUTO 31005KT 10SM BKN022 OVC100 M01/M08 A3000 RMK AO2
KRGK 101955Z AUTO 32007KT 10SM OVC022 M01/M07 A3000 RMK AO2
KRGK 101935Z AUTO 32004KT 10SM OVC020 M01/M07 A3001 RMK AO2
KRGK 101915Z AUTO 33007KT 10SM OVC020 M02/M08 A3001 RMK AO2
KRGK 101855Z AUTO 35005KT 10SM OVC020 M02/M08 A2999 RMK AO2
KRGK 101835Z AUTO 34004KT 10SM OVC020 M02/M08 A2999 RMK AO2
KRGK 101815Z AUTO 32008KT 10SM OVC020 M02/M07 A2999 RMK AO2
KRGK 101755Z AUTO 33006KT 10SM OVC020 M02/M08 A2998 RMK AO2
KRGK 101735Z AUTO 30006KT 10SM OVC022 M02/M07 A2998 RMK AO2
KRGK 101715Z AUTO 32004KT 10SM OVC024 M02/M07 A2999 RMK AO2
KRGK 101655Z AUTO 34006KT 10SM OVC024 M03/M08 A2999 RMK AO2
KRGK 101635Z AUTO 31004KT 10SM OVC024 M03/M08 A2998 RMK AO2
KRGK 101615Z AUTO 34004KT 10SM OVC026 M03/M08 A2997 RMK AO2
KRGK 101555Z AUTO 33004KT 10SM OVC026 M03/M08 A2996 RMK AO2
KRGK 101535Z AUTO 30004KT 10SM OVC026 M04/M08 A2996 RMK AO2
KRGK 101515Z AUTO 32004KT 10SM OVC026 M04/M08 A2995 RMK AO2
KRGK 101455Z AUTO 00000KT 10SM OVC026 M04/M08 A2993 RMK AO2
KRGK 101435Z AUTO 30003KT 10SM OVC026 M05/M08 A2992 RMK AO2
KRGK 101415Z AUTO 31005KT 10SM OVC026 M05/M08 A2992 RMK AO2
KRGK 101355Z AUTO 30004KT 10SM OVC028 M06/M08 A2990 RMK AO2
KRGK 101335Z AUTO 29004KT 10SM BKN028 M07/M09 A2990 RMK AO2
KRGK 101315Z AUTO 29005KT 10SM CLR M07/M09 A2989 RMK AO2
KRGK 101255Z AUTO 27004KT 10SM CLR M07/M09 A2988 RMK AO2
KRGK 101235Z AUTO 27003KT 10SM CLR M08/M10 A2988 RMK AO2
KRGK 101215Z AUTO 00000KT 10SM CLR M07/M09 A2987 RMK AO2
KRGK 101155Z AUTO 00000KT 10SM CLR M08/M09 A2985 RMK AO2
KRGK 101135Z AUTO 00000KT 10SM CLR M09/M12 A2984 RMK AO2
KRGK 101115Z AUTO 00000KT 10SM CLR M09/M12 A2983 RMK AO2
KRGK 101055Z AUTO 00000KT 10SM CLR M10/M12 A2982 RMK AO2
KRGK 101035Z AUTO 00000KT 10SM CLR M09/M11 A2981 RMK AO2
KRGK 101015Z AUTO 00000KT 10SM CLR M09/M11 A2982 RMK AO2
KRGK 100955Z AUTO 00000KT 10SM CLR M09/M12 A2981 RMK AO2
KRGK 100935Z AUTO 00000KT 10SM CLR M09/M12 A2981 RMK AO2
KRGK 100915Z AUTO 00000KT 10SM CLR M09/M11 A2982 RMK AO2
KRGK 100855Z AUTO 00000KT 10SM CLR M08/M11 A2982 RMK AO2
KRGK 100835Z AUTO 00000KT 10SM CLR M07/M10 A2982 RMK AO2
KRGK 100815Z AUTO 00000KT 10SM CLR M08/M11 A2982 RMK AO2
KRGK 100755Z AUTO 00000KT 10SM CLR M07/M10 A2982 RMK AO2
KRGK 100735Z AUTO 00000KT 10SM CLR M07/M10 A2982 RMK AO2
KRGK 100715Z AUTO 00000KT 10SM CLR M05/M09 A2982 RMK AO2
KRGK 100655Z AUTO 00000KT 10SM CLR M06/M10 A2982 RMK AO2
KRGK 100635Z AUTO 20003KT 10SM CLR M05/M10 A2983 RMK AO2
KRGK 100615Z AUTO 20006KT 10SM SCT090 M04/M10 A2984 RMK AO2
KRGK 100555Z AUTO 19007KT 172V242 10SM OVC090 M04/M09 A2985 RMK AO2
KRGK 100535Z AUTO 16004KT 10SM OVC090 M04/M09 A2987 RMK AO2
KRGK 100515Z AUTO 21004KT 10SM OVC090 M04/M10 A2990 RMK AO2
KRGK 100455Z AUTO 19005KT 10SM OVC090 M04/M10 A2991 RMK AO2
KRGK 100435Z AUTO 21006KT 10SM OVC090 M05/M10 A2992 RMK AO2
KRGK 100415Z AUTO 20004KT 10SM SCT075 OVC090 M05/M11 A2994 RMK AO2
KRGK 100355Z AUTO 22006KT 10SM BKN075 OVC090 M05/M11 A2995 RMK AO2
KRGK 100335Z AUTO 23005KT 10SM BKN075 OVC090 M05/M11 A2996 RMK AO2
KRGK 100315Z AUTO 23005KT 10SM BKN075 OVC095 M05/M11 A2997 RMK AO2
KRGK 100255Z AUTO 23003KT 10SM SCT075 OVC095 M06/M11 A2999 RMK AO2
KRGK 100235Z AUTO 22007KT 10SM SCT042 SCT060 OVC075 M06/M11 A2998 RMK AO2
KRGK 100215Z AUTO 26005KT 10SM BKN038 BKN050 OVC075 M06/M11 A3001 RMK AO2
KRGK 100155Z AUTO 24005KT 10SM BKN039 BKN048 OVC060 M06/M11 A3000 RMK AO2
KRGK 100135Z AUTO 25006KT 10SM SCT065 SCT075 OVC090 M06/M12 A3001 RMK AO2
KRGK 100115Z AUTO 25006KT 10SM OVC100 M06/M12 A3002 RMK AO2
KRGK 100055Z AUTO 26006KT 10SM OVC110 M07/M12 A3003 RMK AO2
KRGK 100035Z AUTO 25005KT 10SM BKN110 M07/M12 A3004 RMK AO2
KRGK 100015Z AUTO 25004KT 10SM BKN120 M06/M12 A3005 RMK AO2
KRGK 092355Z AUTO 27004KT 10SM SCT120 M07/M12 A3006 RMK AO2
KRGK 092335Z AUTO 00000KT 10SM SCT027 M07/M13 A3006 RMK AO2
KRGK 092315Z AUTO 00000KT 10SM SCT027 M07/M13 A3006 RMK AO2
KRGK 092255Z AUTO 28004KT 10SM CLR M07/M13 A3007 RMK AO2
KRGK 092235Z AUTO 28006KT 10SM CLR M06/M13 A3007 RMK AO2
KRGK 092215Z AUTO 27005KT 10SM CLR M06/M13 A3007 RMK AO2
KRGK 092155Z AUTO 29006KT 10SM SCT029 M06/M13 A3008 RMK AO2
KRGK 092135Z AUTO 29005KT 10SM SCT029 M06/M14 A3008 RMK AO2
KRGK 092115Z AUTO 32005KT 10SM CLR M06/M14 A3008 RMK AO2
KRGK 092055Z AUTO 32005KT 10SM SCT120 M06/M14 A3008 RMK AO2
KRGK 092035Z AUTO 35006KT 10SM CLR M06/M14 A3009 RMK AO2
KRGK 092015Z AUTO 34006KT 10SM SCT029 M06/M14 A3009 RMK AO2
KRGK 091955Z AUTO 33008KT 292V022 10SM BKN029 M06/M14 A3009 RMK AO2
KRGK 091935Z AUTO 31005KT 10SM CLR M06/M14 A3008 RMK AO2
KRGK 091915Z AUTO 33004KT 10SM SCT029 M07/M15 A3007 RMK AO2
KRGK 091855Z AUTO 34005KT 10SM CLR M07/M15 A3008 RMK AO2
KRGK 091835Z AUTO 36007KT 10SM SCT029 M07/M15 A3009 RMK AO2
KRGK 091815Z AUTO 35007KT 322V022 10SM SCT029 M07/M16 A3010 RMK AO2
KRGK 091755Z AUTO 01007KT 10SM CLR M07/M16 A3010 RMK AO2
KRGK 091735Z AUTO 36008KT 332V042 10SM CLR M07/M16 A3010 RMK AO2
KRGK 091715Z AUTO 36008KT 322V042 10SM CLR M08/M16 A3010 RMK AO2
KRGK 091655Z AUTO 01009G14KT 332V032 10SM CLR M07/M15 A3010 RMK AO2
KRGK 091635Z AUTO 34009G14KT 10SM SCT027 M07/M15 A3010 RMK AO2
KRGK 091615Z AUTO 33008G14KT 10SM OVC029 M07/M15 A3009 RMK AO2
KRGK 091555Z AUTO 35008KT 312V012 10SM OVC029 M07/M15 A3007 RMK AO2
KRGK 091535Z AUTO 35008KT 322V032 10SM OVC031 M07/M15 A3007 RMK AO2
KRGK 091515Z AUTO 33009KT 10SM -SN OVC031 M07/M14 A3007 RMK AO2
KRGK 091455Z AUTO 33010G15KT 10SM OVC031 M07/M14 A3006 RMK AO2
KRGK 091435Z AUTO 32008G15KT 10SM OVC031 M07/M14 A3005 RMK AO2
KRGK 091415Z AUTO 33007G15KT 10SM OVC031 M07/M14 A3004 RMK AO2
KRGK 091355Z AUTO 34006KT 10SM OVC031 M07/M14 A3002 RMK AO2
KRGK 091335Z AUTO 33006KT 10SM OVC031 M07/M14 A3001 RMK AO2
KRGK 091315Z AUTO 34007KT 312V012 10SM OVC031 M07/M14 A3000 RMK AO2
KRGK 091255Z AUTO 33006KT 10SM OVC031 M06/M13 A2999 RMK AO2
KRGK 091235Z AUTO 36008KT 10SM OVC031 M06/M13 A2998 RMK AO2